Time;durP1;ratioP1;P1;durP2;ratioP2;P2;SDS_P1;SDS_P2;PMS_P1;PMS_P2;Temp;Humidity;BMP_temperature;BMP_pressure;BME280_temperature;BME280_humidity;BME280_pressure;Samples;Min_cycle;Max_cycle;Signal;HPM_P1;HPM_P2
2022/06/23 00:00:07;;;;;;;10.93;9.30;;;13.70;99.90;;;;;;6223894;28;20049;-69
2022/06/23 00:03:20;;;;;;;11.05;9.40;;;13.70;99.90;;;;;;6231233;28;20057;-69
2022/06/23 00:06:36;;;;;;;9.82;8.75;;;13.60;99.90;;;;;;6238833;28;20412;-68
2022/06/23 00:09:40;;;;;;;11.40;9.68;;;13.50;99.90;;;;;;6241734;28;20050;-68
2022/06/23 00:12:44;;;;;;;10.77;9.63;;;13.60;99.90;;;;;;6242024;28;20046;-68
2022/06/23 00:15:46;;;;;;;11.95;9.70;;;13.50;99.90;;;;;;6228928;28;20128;-69
2022/06/23 00:18:49;;;;;;;12.90;10.45;;;13.50;99.90;;;;;;6222551;28;20417;-69
2022/06/23 00:21:54;;;;;;;14.60;11.82;;;13.50;99.90;;;;;;6237588;28;20049;-69
2022/06/23 00:24:59;;;;;;;12.55;10.30;;;13.20;99.90;;;;;;6245266;28;20505;-69
2022/06/23 00:28:01;;;;;;;14.10;11.57;;;13.10;99.90;;;;;;6244273;28;20610;-69
2022/06/23 00:31:06;;;;;;;14.53;11.63;;;13.10;99.90;;;;;;6248613;28;20064;-69
2022/06/23 00:34:18;;;;;;;13.88;10.95;;;13.10;99.90;;;;;;6232889;28;20492;-69
2022/06/23 00:37:21;;;;;;;15.02;10.75;;;13.10;99.90;;;;;;6227344;28;20062;-69
2022/06/23 00:40:25;;;;;;;16.60;12.55;;;13.10;99.90;;;;;;6248574;28;20049;-69
2022/06/23 00:43:29;;;;;;;17.58;12.63;;;13.10;99.90;;;;;;6238262;28;20068;-69
2022/06/23 00:46:37;;;;;;;13.20;10.85;;;13.00;99.90;;;;;;6241976;28;20057;-69
2022/06/23 00:49:47;;;;;;;14.15;11.65;;;12.90;99.90;;;;;;6243839;28;20155;-69
2022/06/23 00:52:54;;;;;;;13.52;9.55;;;13.00;99.90;;;;;;6247455;28;20057;-69
2022/06/23 00:56:02;;;;;;;14.27;11.90;;;12.90;99.90;;;;;;6248825;28;20635;-69
2022/06/23 00:59:07;;;;;;;13.27;11.20;;;12.90;99.90;;;;;;6250545;28;20053;-69
2022/06/23 01:02:12;;;;;;;16.17;12.13;;;12.90;99.90;;;;;;6248084;28;20196;-69
2022/06/23 01:05:22;;;;;;;14.98;11.65;;;12.80;99.90;;;;;;6246809;28;20417;-69
2022/06/23 01:08:30;;;;;;;17.63;12.60;;;12.90;99.90;;;;;;6225585;28;20386;-69
2022/06/23 01:11:39;;;;;;;14.65;12.32;;;12.70;99.90;;;;;;6244489;28;20050;-69
2022/06/23 01:14:47;;;;;;;16.42;13.43;;;12.70;99.90;;;;;;6237898;28;20050;-69
2022/06/23 01:17:53;;;;;;;19.33;13.65;;;12.70;99.90;;;;;;6248466;28;20531;-69
2022/06/23 01:20:59;;;;;;;17.10;11.98;;;12.70;99.90;;;;;;6248696;28;20053;-69
2022/06/23 01:24:17;;;;;;;18.80;13.90;;;12.60;99.90;;;;;;6236432;28;20408;-69
2022/06/23 01:27:27;;;;;;;17.23;13.80;;;12.50;99.90;;;;;;6239936;28;20056;-69
2022/06/23 01:30:33;;;;;;;16.73;11.02;;;12.40;99.90;;;;;;6229489;28;20050;-70
2022/06/23 01:33:42;;;;;;;17.15;14.43;;;12.40;99.90;;;;;;6255458;28;20515;-69
2022/06/23 01:36:48;;;;;;;17.92;14.18;;;12.40;99.90;;;;;;6225111;28;20126;-69
2022/06/23 01:39:56;;;;;;;16.77;13.35;;;12.40;99.90;;;;;;6242542;28;20069;-69
2022/06/23 01:43:05;;;;;;;14.80;11.45;;;12.40;99.90;;;;;;6278940;28;20064;-69
2022/06/23 01:46:14;;;;;;;15.98;13.40;;;12.50;99.90;;;;;;6241518;28;20508;-69
2022/06/23 01:49:19;;;;;;;16.52;13.48;;;12.60;99.90;;;;;;6226107;28;20050;-69
2022/06/23 01:52:22;;;;;;;16.58;13.40;;;12.60;99.90;;;;;;6224439;28;20049;-69
2022/06/23 01:55:29;;;;;;;19.35;14.52;;;12.70;99.90;;;;;;6256300;28;20133;-70
2022/06/23 01:58:42;;;;;;;21.20;15.77;;;12.70;99.90;;;;;;6244429;28;20100;-69
2022/06/23 02:01:51;;;;;;;19.75;14.43;;;12.70;99.90;;;;;;6228992;28;20065;-69
2022/06/23 02:05:01;;;;;;;20.25;15.80;;;12.60;99.90;;;;;;6257921;28;20132;-69
2022/06/23 02:08:11;;;;;;;19.00;15.15;;;12.50;99.90;;;;;;6230273;28;20481;-69
2022/06/23 02:11:18;;;;;;;19.63;15.75;;;12.50;99.90;;;;;;6242428;28;20060;-71
2022/06/23 02:14:33;;;;;;;17.08;13.13;;;12.60;99.90;;;;;;6245739;28;20045;-71
2022/06/23 02:17:45;;;;;;;18.30;14.68;;;12.50;99.90;;;;;;6239803;28;20057;-71
2022/06/23 02:21:02;;;;;;;15.98;13.48;;;12.50;99.90;;;;;;6243901;28;20050;-71
2022/06/23 02:24:15;;;;;;;20.83;15.65;;;12.50;99.90;;;;;;6242126;28;20484;-71
2022/06/23 02:27:24;;;;;;;16.63;13.93;;;12.50;99.90;;;;;;6223134;28;20084;-71
2022/06/23 02:30:32;;;;;;;16.40;13.63;;;12.50;99.90;;;;;;6267231;28;20057;-71
2022/06/23 02:33:39;;;;;;;15.40;13.32;;;12.50;99.90;;;;;;6229643;28;20069;-71
2022/06/23 02:37:03;;;;;;;16.67;13.77;;;12.60;99.90;;;;;;6256121;28;20049;-71
2022/06/23 02:40:05;;;;;;;;;;;12.60;99.90;;;;;;6236943;28;20056;-71
2022/06/23 02:43:18;;;;;;;18.17;13.07;;;12.60;99.90;;;;;;6231255;28;19921;-71
2022/06/23 02:46:55;;;;;;;20.55;13.68;;;12.60;99.90;;;;;;6246785;28;20068;-71
2022/06/23 02:50:22;;;;;;;15.32;13.27;;;12.50;99.90;;;;;;6215287;28;20069;-71
2022/06/23 02:53:44;;;;;;;17.15;13.13;;;12.40;99.90;;;;;;6230517;28;20485;-71
2022/06/23 02:57:01;;;;;;;16.80;13.10;;;12.30;99.90;;;;;;6239184;28;20061;-72
2022/06/23 03:00:13;;;;;;;18.10;14.43;;;12.20;99.90;;;;;;6222870;28;20054;-71
2022/06/23 03:03:20;;;;;;;18.63;13.63;;;12.20;99.90;;;;;;6229984;28;20413;-71
2022/06/23 03:06:28;;;;;;;17.63;12.70;;;12.20;99.90;;;;;;6233650;28;20170;-72
2022/06/23 03:09:36;;;;;;;19.15;14.15;;;12.20;99.90;;;;;;6276816;28;20050;-71
2022/06/23 03:12:47;;;;;;;17.05;12.43;;;12.20;99.90;;;;;;6242572;28;20045;-71
2022/06/23 03:15:56;;;;;;;19.45;14.88;;;12.20;99.90;;;;;;6222442;28;20478;-71
2022/06/23 03:19:03;;;;;;;17.15;13.57;;;12.20;99.90;;;;;;6223344;28;20501;-71
2022/06/23 03:22:12;;;;;;;18.77;13.35;;;12.20;99.90;;;;;;6223516;28;20545;-71
2022/06/23 03:25:21;;;;;;;19.92;13.70;;;12.20;99.90;;;;;;6267422;28;20049;-71
2022/06/23 03:28:26;;;;;;;20.55;14.57;;;12.20;99.90;;;;;;6229683;28;20072;-71
2022/06/23 03:31:33;;;;;;;19.77;13.85;;;12.30;99.90;;;;;;6246842;28;20053;-72
2022/06/23 03:34:39;;;;;;;18.23;14.65;;;12.30;99.90;;;;;;6245894;28;20042;-71
2022/06/23 03:37:50;;;;;;;23.88;14.38;;;12.30;99.90;;;;;;6242065;28;20057;-71
2022/06/23 03:44:22;;;;;;;17.95;13.07;;;12.30;99.90;;;;;;6244698;28;20408;-71
2022/06/23 03:47:30;;;;;;;15.82;12.55;;;12.30;99.90;;;;;;6228668;28;20056;-71
2022/06/23 03:50:38;;;;;;;17.65;13.05;;;12.30;99.90;;;;;;6222335;28;20125;-72
2022/06/23 03:53:51;;;;;;;22.42;12.98;;;12.40;99.90;;;;;;6240098;28;20405;-71
2022/06/23 03:56:58;;;;;;;16.52;12.32;;;12.50;99.90;;;;;;6242648;28;20050;-71
2022/06/23 04:00:14;;;;;;;18.15;12.40;;;12.50;99.90;;;;;;6248161;28;20053;-71
2022/06/23 04:03:23;;;;;;;17.83;12.75;;;12.50;99.90;;;;;;6250774;28;20407;-71
2022/06/23 04:06:34;;;;;;;18.85;13.27;;;12.60;99.90;;;;;;6240454;28;20057;-71
2022/06/23 04:09:38;;;;;;;18.30;13.00;;;12.70;99.90;;;;;;6250880;28;20046;-71
2022/06/23 04:12:45;;;;;;;18.65;13.02;;;12.70;99.90;;;;;;6256482;28;20054;-71
2022/06/23 04:15:49;;;;;;;22.27;14.27;;;12.70;99.90;;;;;;6227700;28;20050;-71
2022/06/23 04:18:52;;;;;;;17.88;13.20;;;12.70;99.90;;;;;;6226710;28;20402;-71
2022/06/23 04:22:03;;;;;;;18.17;12.88;;;12.70;99.90;;;;;;6231518;28;20057;-71
2022/06/23 04:25:09;;;;;;;21.75;14.60;;;12.80;99.90;;;;;;6240276;28;20050;-71
2022/06/23 04:28:22;;;;;;;21.88;13.90;;;12.80;99.90;;;;;;6225686;28;20062;-71
2022/06/23 04:31:28;;;;;;;21.00;14.47;;;12.90;99.90;;;;;;6237839;28;20101;-71
2022/06/23 04:34:34;;;;;;;19.55;14.95;;;13.00;99.90;;;;;;6259832;28;20057;-71
2022/06/23 04:37:42;;;;;;;17.20;13.77;;;13.00;99.90;;;;;;6241426;28;20058;-71
2022/06/23 04:40:50;;;;;;;20.60;14.70;;;13.00;99.90;;;;;;6259449;28;20049;-71
2022/06/23 04:43:56;;;;;;;21.23;15.02;;;13.00;99.90;;;;;;6248713;28;20053;-72
2022/06/23 04:47:02;;;;;;;17.70;13.35;;;13.10;99.90;;;;;;6245404;28;20476;-71
2022/06/23 04:50:12;;;;;;;22.17;14.27;;;13.20;99.90;;;;;;6239164;28;20053;-71
2022/06/23 04:53:23;;;;;;;19.15;14.38;;;13.30;99.90;;;;;;6245357;28;20123;-72
2022/06/23 04:56:43;;;;;;;19.23;14.05;;;13.40;99.90;;;;;;6242132;28;20412;-69
2022/06/23 04:59:49;;;;;;;19.73;14.88;;;13.40;99.90;;;;;;6248031;28;20054;-72
2022/06/23 05:02:55;;;;;;;22.40;16.20;;;13.50;99.90;;;;;;6225147;28;20060;-70
2022/06/23 05:06:20;;;;;;;20.50;15.20;;;13.60;99.90;;;;;;6236589;28;20049;-69
2022/06/23 05:09:27;;;;;;;21.35;15.07;;;13.90;99.90;;;;;;6272315;28;20485;-71
2022/06/23 05:12:34;;;;;;;20.65;15.27;;;14.40;99.90;;;;;;6242556;28;20079;-71
2022/06/23 05:15:43;;;;;;;22.17;15.13;;;14.80;99.90;;;;;;6237156;28;20046;-70
2022/06/23 05:18:48;;;;;;;17.55;13.85;;;15.40;99.90;;;;;;6224107;28;20093;-70
2022/06/23 05:21:53;;;;;;;21.35;14.52;;;15.60;99.90;;;;;;6230886;28;20532;-70
2022/06/23 05:24:58;;;;;;;20.67;14.57;;;15.50;99.90;;;;;;6235894;28;20086;-70
2022/06/23 05:28:05;;;;;;;20.58;15.02;;;15.30;99.90;;;;;;6260505;28;20054;-70
2022/06/23 05:31:14;;;;;;;20.00;15.43;;;15.20;99.90;;;;;;6224259;28;20065;-70
2022/06/23 05:34:23;;;;;;;20.52;14.85;;;15.10;99.90;;;;;;6243988;28;20456;-71
2022/06/23 05:37:32;;;;;;;15.65;11.27;;;15.00;99.90;;;;;;6231076;28;20057;-71
2022/06/23 05:40:39;;;;;;;17.00;13.93;;;15.00;99.90;;;;;;6224605;28;20520;-71
2022/06/23 05:43:43;;;;;;;19.25;14.25;;;15.10;99.90;;;;;;6238183;28;20509;-71
2022/06/23 05:46:47;;;;;;;18.55;14.68;;;15.10;99.90;;;;;;6282273;28;20053;-71
2022/06/23 05:49:55;;;;;;;17.80;15.05;;;15.10;99.90;;;;;;6246858;28;20057;-71
2022/06/23 05:53:00;;;;;;;16.90;14.77;;;15.20;99.90;;;;;;6247840;28;20083;-71
2022/06/23 05:56:11;;;;;;;16.73;13.52;;;15.30;99.90;;;;;;6246537;28;20042;-71
2022/06/23 05:59:22;;;;;;;19.05;14.68;;;15.30;99.90;;;;;;6246619;28;20175;-71
2022/06/23 06:02:27;;;;;;;17.20;15.10;;;15.40;99.90;;;;;;6247375;28;20053;-71
2022/06/23 06:05:34;;;;;;;12.68;10.95;;;15.50;99.90;;;;;;6247670;28;20038;-71
2022/06/23 06:09:35;;;;;;;16.30;12.82;;;15.80;99.90;;;;;;6241488;28;20045;-71
2022/06/23 06:12:07;;;;;;;14.50;11.48;;;16.00;99.90;;;;;;6237927;28;20136;-79
2022/06/23 06:15:18;;;;;;;270.60;24.73;;;16.20;99.90;;;;;;6242411;28;20046;-71
2022/06/23 06:18:28;;;;;;;16.10;13.45;;;16.30;99.90;;;;;;6230130;28;20053;-70
2022/06/23 06:21:30;;;;;;;16.20;10.50;;;16.40;99.90;;;;;;6233509;28;20059;-70
2022/06/23 06:24:37;;;;;;;10.85;8.25;;;16.40;99.90;;;;;;6237887;28;20061;-70
2022/06/23 06:27:38;;;;;;;17.95;12.40;;;16.60;99.90;;;;;;6231694;28;20054;-70
2022/06/23 06:30:47;;;;;;;14.90;11.02;;;16.80;99.90;;;;;;6234135;28;20045;-70
2022/06/23 06:33:59;;;;;;;13.88;12.13;;;16.80;99.90;;;;;;6241511;28;20053;-71
2022/06/23 06:37:02;;;;;;;14.75;11.93;;;16.90;99.90;;;;;;6237459;28;20053;-70
2022/06/23 06:40:05;;;;;;;14.05;11.90;;;17.20;99.90;;;;;;6243446;28;20049;-71
2022/06/23 06:43:09;;;;;;;;;;;17.60;99.90;;;;;;6229236;28;20048;-70
2022/06/23 06:46:12;;;;;;;13.88;11.50;;;17.70;99.90;;;;;;6242544;28;19922;-70
2022/06/23 06:49:17;;;;;;;14.55;11.50;;;18.00;99.90;;;;;;6223519;28;20053;-70
2022/06/23 06:52:19;;;;;;;11.85;7.43;;;18.00;99.90;;;;;;6227426;28;20045;-70
2022/06/23 06:55:26;;;;;;;10.18;8.73;;;18.10;99.90;;;;;;6244864;28;20393;-70
2022/06/23 06:58:36;;;;;;;13.32;10.13;;;18.40;99.90;;;;;;6245653;28;20416;-70
2022/06/23 07:01:42;;;;;;;9.07;7.20;;;18.60;99.90;;;;;;6246240;28;20041;-70
2022/06/23 07:04:50;;;;;;;9.50;6.90;;;18.80;99.90;;;;;;6235400;28;20053;-70
2022/06/23 07:07:56;;;;;;;8.77;7.20;;;19.00;99.90;;;;;;6231284;28;20125;-69
2022/06/23 07:11:06;;;;;;;13.48;8.45;;;19.40;99.90;;;;;;6248308;28;20049;-70
2022/06/23 07:14:15;;;;;;;10.38;6.93;;;20.00;99.90;;;;;;6246098;28;20060;-70
2022/06/23 07:17:24;;;;;;;5.47;3.72;;;20.80;99.90;;;;;;6236468;28;20045;-70
2022/06/23 07:20:33;;;;;;;7.35;5.57;;;21.20;99.90;;;;;;6235452;28;20053;-70
2022/06/23 07:23:43;;;;;;;10.20;8.10;;;21.50;99.90;;;;;;6275535;28;20050;-69
2022/06/23 07:26:48;;;;;;;9.63;8.05;;;21.90;99.90;;;;;;6246710;28;20385;-70
2022/06/23 07:29:57;;;;;;;7.93;5.10;;;22.00;99.90;;;;;;6278754;28;20046;-69
2022/06/23 07:33:05;;;;;;;10.80;8.05;;;22.20;99.90;;;;;;6245294;28;20409;-70
2022/06/23 07:36:12;;;;;;;7.85;6.93;;;22.40;99.90;;;;;;6246964;28;20049;-69
2022/06/23 07:39:19;;;;;;;7.65;5.07;;;22.60;99.90;;;;;;6244620;28;20129;-70
2022/06/23 07:42:36;;;;;;;9.63;6.25;;;22.70;99.90;;;;;;6246989;28;20050;-69
2022/06/23 07:45:46;;;;;;;9.38;4.55;;;22.70;99.90;;;;;;6246817;28;20049;-70
2022/06/23 07:48:49;;;;;;;10.65;6.82;;;22.90;99.90;;;;;;6245433;28;20057;-70
2022/06/23 07:51:51;;;;;;;5.68;5.05;;;22.80;99.90;;;;;;6246362;28;20080;-71
2022/06/23 07:54:55;;;;;;;7.20;5.07;;;23.00;99.90;;;;;;6245992;28;20050;-70
2022/06/23 07:57:57;;;;;;;6.18;4.05;;;23.20;99.90;;;;;;6225066;28;20053;-70
2022/06/23 08:01:05;;;;;;;8.68;5.95;;;23.30;99.90;;;;;;6222162;28;20137;-70
2022/06/23 08:04:15;;;;;;;5.47;4.30;;;23.40;99.90;;;;;;6231530;28;20053;-70
2022/06/23 08:07:17;;;;;;;10.55;6.82;;;23.50;99.90;;;;;;6246429;28;20060;-70
2022/06/23 08:10:23;;;;;;;5.97;4.20;;;23.70;99.90;;;;;;6223977;28;20054;-70
2022/06/23 08:13:27;;;;;;;5.70;4.55;;;23.80;99.90;;;;;;6234380;28;20056;-70
2022/06/23 08:19:57;;;;;;;9.90;5.95;;;23.90;99.90;;;;;;6234598;28;20050;-70
2022/06/23 08:23:01;;;;;;;8.23;4.95;;;24.00;99.90;;;;;;6221494;28;20060;-71
2022/06/23 08:26:06;;;;;;;8.18;5.22;;;24.10;99.90;;;;;;6224936;28;20052;-70
2022/06/23 08:29:12;;;;;;;7.32;5.72;;;24.20;99.90;;;;;;6256970;28;20054;-70
2022/06/23 08:32:15;;;;;;;6.57;5.10;;;24.20;99.90;;;;;;6226613;28;20045;-70
2022/06/23 08:35:24;;;;;;;7.88;4.25;;;24.20;99.90;;;;;;6278165;28;20507;-70
2022/06/23 08:38:30;;;;;;;7.60;4.55;;;24.30;99.90;;;;;;6278400;28;20503;-70
2022/06/23 08:41:42;;;;;;;6.70;5.03;;;24.30;99.90;;;;;;6249445;28;20425;-70
2022/06/23 08:44:49;;;;;;;5.82;3.40;;;24.30;99.90;;;;;;6282833;28;20496;-70
2022/06/23 08:47:59;;;;;;;5.47;3.97;;;24.30;99.90;;;;;;6237767;28;20416;-70
2022/06/23 08:51:10;;;;;;;5.35;4.47;;;24.40;99.90;;;;;;6237812;28;20054;-70
2022/06/23 08:54:20;;;;;;;6.75;4.55;;;24.50;99.90;;;;;;6225803;28;20149;-70
2022/06/23 08:57:29;;;;;;;5.47;3.10;;;24.40;99.90;;;;;;6225407;28;20069;-70
2022/06/23 09:00:37;;;;;;;7.05;3.75;;;24.40;99.90;;;;;;6224457;28;20060;-70
2022/06/23 09:03:50;;;;;;;9.13;4.45;;;24.20;99.90;;;;;;6226684;28;20052;-70
2022/06/23 09:07:00;;;;;;;8.40;4.20;;;24.20;99.90;;;;;;6225464;28;20089;-70
2022/06/23 09:10:12;;;;;;;6.70;3.83;;;24.10;99.90;;;;;;6224054;28;20053;-70
2022/06/23 09:13:28;;;;;;;5.55;3.30;;;24.20;99.90;;;;;;6230854;28;20079;-70
2022/06/23 09:16:47;;;;;;;7.40;4.28;;;24.20;99.90;;;;;;6230289;28;20057;-70
2022/06/23 09:20:00;;;;;;;6.20;3.55;;;24.20;99.90;;;;;;6262081;28;20049;-70
2022/06/23 09:23:16;;;;;;;5.57;3.50;;;24.20;99.90;;;;;;6212217;28;20053;-70
2022/06/23 09:26:27;;;;;;;4.80;3.70;;;24.40;99.90;;;;;;6246281;28;20052;-71
2022/06/23 09:29:45;;;;;;;9.93;4.10;;;24.40;99.90;;;;;;6249547;28;20045;-70
2022/06/23 09:33:07;;;;;;;6.22;3.38;;;24.50;99.90;;;;;;6249266;28;20133;-70
2022/06/23 09:36:34;;;;;;;6.28;3.03;;;24.60;99.90;;;;;;6246280;28;20049;-70
2022/06/23 09:40:09;;;;;;;6.10;3.30;;;24.70;99.90;;;;;;6245915;28;20049;-69
2022/06/23 09:43:48;;;;;;;8.80;3.70;;;24.80;99.90;;;;;;6195803;28;20052;-70
2022/06/23 09:47:06;;;;;;;5.47;3.55;;;24.90;99.90;;;;;;6237414;28;20054;-70
2022/06/23 09:50:28;;;;;;;4.78;2.40;;;24.90;99.90;;;;;;6248635;28;20052;-70
2022/06/23 09:53:57;;;;;;;4.32;2.95;;;24.80;99.90;;;;;;6243446;28;20481;-71
2022/06/23 09:57:12;;;;;;;7.55;3.60;;;24.40;99.90;;;;;;6245629;28;20057;-71
2022/06/23 10:00:18;;;;;;;7.28;3.50;;;24.20;99.90;;;;;;6249078;28;20057;-71
2022/06/23 10:03:37;;;;;;;3.58;2.67;;;24.20;99.90;;;;;;6248445;28;20056;-72
2022/06/23 10:06:52;;;;;;;7.03;2.70;;;24.30;99.90;;;;;;6248619;28;20420;-71
2022/06/23 10:10:04;;;;;;;5.32;2.67;;;24.30;99.90;;;;;;6248701;28;20084;-71
2022/06/23 10:13:30;;;;;;;6.63;2.25;;;24.30;99.90;;;;;;6238770;28;20049;-72
2022/06/23 10:16:50;;;;;;;4.70;2.80;;;24.40;99.90;;;;;;6239959;28;20053;-72
2022/06/23 10:20:10;;;;;;;2.80;2.20;;;24.50;99.90;;;;;;6239315;28;20438;-71
2022/06/23 10:23:47;;;;;;;5.53;3.15;;;24.50;99.90;;;;;;6247110;28;20069;-72
2022/06/23 10:27:09;;;;;;;3.58;2.30;;;24.60;99.90;;;;;;6179003;28;20212;-72
2022/06/23 10:30:19;;;;;;;4.13;2.70;;;24.60;99.90;;;;;;6237592;28;20057;-73
2022/06/23 10:33:48;;;;;;;3.05;2.45;;;24.70;99.90;;;;;;6244779;28;20095;-73
2022/06/23 10:37:06;;;;;;;5.13;2.58;;;24.90;99.90;;;;;;6246331;28;20049;-73
2022/06/23 10:40:31;;;;;;;4.05;2.20;;;25.00;99.90;;;;;;6221403;28;20151;-73
2022/06/23 10:44:07;;;;;;;5.30;2.33;;;25.00;99.90;;;;;;6228857;28;20049;-72
2022/06/23 10:47:21;;;;;;;5.57;2.70;;;25.10;99.90;;;;;;6238970;28;20041;-71
2022/06/23 10:50:36;;;;;;;5.05;2.58;;;25.20;99.90;;;;;;6234511;28;20124;-73
2022/06/23 10:54:11;;;;;;;4.07;2.55;;;25.30;99.90;;;;;;6243556;28;20045;-73
2022/06/23 10:57:36;;;;;;;3.45;2.30;;;25.40;99.90;;;;;;6237467;28;20045;-76
2022/06/23 11:00:47;;;;;;;6.95;2.80;;;25.40;99.90;;;;;;6243530;28;20439;-76
2022/06/23 11:04:16;;;;;;;5.85;2.40;;;25.50;99.90;;;;;;6230656;28;20051;-76
2022/06/23 11:07:37;;;;;;;4.85;2.38;;;25.60;99.90;;;;;;6245000;28;20488;-76
2022/06/23 11:10:55;;;;;;;4.18;2.30;;;25.60;99.90;;;;;;6246447;28;20081;-76
2022/06/23 11:14:10;;;;;;;4.13;2.33;;;25.60;99.90;;;;;;6241059;28;20060;-76
2022/06/23 11:17:22;;;;;;;3.53;2.28;;;25.60;99.90;;;;;;6245873;28;20045;-75
2022/06/23 11:20:38;;;;;;;3.80;2.25;;;25.70;99.90;;;;;;6244005;28;20053;-75
2022/06/23 11:23:49;;;;;;;5.55;2.42;;;25.70;99.90;;;;;;6243518;28;20045;-75
2022/06/23 11:27:02;;;;;;;4.75;2.40;;;25.70;99.70;;;;;;6245269;28;20060;-75
2022/06/23 11:30:22;;;;;;;3.20;2.30;;;25.70;99.10;;;;;;6240619;28;20106;-73
2022/06/23 11:33:47;;;;;;;3.78;2.10;;;25.80;99.00;;;;;;6239515;28;20068;-74
2022/06/23 11:37:17;;;;;;;5.28;2.28;;;25.90;99.60;;;;;;6241703;28;20531;-73
2022/06/23 11:40:35;;;;;;;3.20;2.03;;;26.00;99.80;;;;;;6243422;28;20068;-73
2022/06/23 11:43:56;;;;;;;6.38;2.90;;;26.00;98.90;;;;;;6238617;28;20052;-73
2022/06/23 11:47:07;;;;;;;6.38;2.60;;;26.00;98.20;;;;;;6238372;28;20077;-73
2022/06/23 11:50:17;;;;;;;2.45;2.20;;;26.00;98.40;;;;;;6242318;28;20563;-73
2022/06/23 11:53:36;;;;;;;4.05;2.45;;;26.00;98.50;;;;;;6242038;28;20049;-73
2022/06/23 11:56:52;;;;;;;3.88;2.40;;;26.00;98.50;;;;;;6237311;28;20042;-73
2022/06/23 12:00:03;;;;;;;2.30;1.92;;;26.00;98.10;;;;;;6245091;28;20061;-73
2022/06/23 12:03:17;;;;;;;3.00;1.92;;;26.00;98.50;;;;;;6245386;28;20049;-73
2022/06/23 12:06:28;;;;;;;3.08;2.00;;;25.80;97.50;;;;;;6242122;28;20049;-73
2022/06/23 12:09:40;;;;;;;3.97;2.05;;;25.80;98.30;;;;;;6239353;28;20053;-73
2022/06/23 12:12:45;;;;;;;7.60;2.15;;;25.70;98.40;;;;;;6234433;28;20053;-73
2022/06/23 12:15:51;;;;;;;2.17;1.98;;;25.60;96.70;;;;;;6238323;28;20056;-73
2022/06/23 12:18:58;;;;;;;2.67;2.08;;;25.70;97.80;;;;;;6249203;28;20080;-73
2022/06/23 12:22:05;;;;;;;2.97;1.88;;;25.60;98.00;;;;;;6241468;28;20111;-73
2022/06/23 12:25:18;;;;;;;2.28;2.08;;;25.50;97.90;;;;;;6249715;28;20053;-73
2022/06/23 12:28:27;;;;;;;5.05;2.10;;;25.70;97.90;;;;;;6245061;28;20042;-73
2022/06/23 12:31:39;;;;;;;5.00;2.30;;;25.80;96.90;;;;;;6247787;28;20045;-74
2022/06/23 12:34:49;;;;;;;2.83;1.90;;;25.90;95.40;;;;;;6248319;28;20056;-73
2022/06/23 12:38:05;;;;;;;3.97;2.47;;;26.00;97.20;;;;;;6248858;28;20049;-74
2022/06/23 12:41:15;;;;;;;3.65;1.95;;;26.10;96.90;;;;;;6248507;28;20049;-73
2022/06/23 12:44:25;;;;;;;2.60;1.83;;;26.20;96.60;;;;;;6244312;28;20053;-74
2022/06/23 12:47:40;;;;;;;5.88;2.35;;;26.10;96.80;;;;;;6245084;28;20052;-73
2022/06/23 12:50:52;;;;;;;3.17;1.92;;;26.30;96.90;;;;;;6249728;28;20060;-73
2022/06/23 12:54:13;;;;;;;4.25;2.33;;;26.30;96.40;;;;;;6247967;28;20046;-73
2022/06/23 12:57:41;;;;;;;3.70;2.03;;;26.30;96.60;;;;;;6247156;28;20054;-73
2022/06/23 13:00:57;;;;;;;3.17;2.00;;;26.20;96.30;;;;;;6243583;28;20420;-73
2022/06/23 13:04:04;;;;;;;4.25;1.85;;;26.10;96.80;;;;;;6248098;28;20484;-73
2022/06/23 13:07:14;;;;;;;2.72;1.83;;;26.00;96.50;;;;;;6242521;28;20072;-73
2022/06/23 13:10:23;;;;;;;2.65;2.00;;;25.90;96.60;;;;;;6235397;28;20480;-74
2022/06/23 13:13:34;;;;;;;3.10;1.83;;;25.70;96.50;;;;;;6244566;28;20049;-73
2022/06/23 13:16:42;;;;;;;4.20;2.20;;;25.80;96.60;;;;;;6247425;28;20053;-74
2022/06/23 13:19:50;;;;;;;5.65;2.08;;;26.00;95.20;;;;;;6248044;28;20081;-73
2022/06/23 13:22:59;;;;;;;3.28;1.90;;;26.20;95.20;;;;;;6231962;28;20049;-73
2022/06/23 13:26:06;;;;;;;2.55;2.03;;;26.30;95.50;;;;;;6247998;28;20198;-73
2022/06/23 13:29:20;;;;;;;5.97;2.60;;;26.50;95.50;;;;;;6249371;28;20054;-73
2022/06/23 13:32:32;;;;;;;3.60;2.00;;;26.60;95.00;;;;;;6248837;28;20053;-73
2022/06/23 13:35:39;;;;;;;3.83;2.28;;;26.60;95.40;;;;;;6246324;28;20053;-73
2022/06/23 13:38:49;;;;;;;3.65;2.03;;;26.60;95.40;;;;;;6247547;28;20050;-73
2022/06/23 13:41:58;;;;;;;4.15;1.88;;;26.50;95.10;;;;;;6247441;28;20510;-73
2022/06/23 13:45:07;;;;;;;2.92;1.80;;;26.60;95.40;;;;;;6246629;28;20073;-73
2022/06/23 13:48:17;;;;;;;3.47;2.10;;;26.60;95.50;;;;;;6246724;28;20042;-73
2022/06/23 13:51:25;;;;;;;3.92;2.00;;;26.50;95.40;;;;;;6246348;28;20497;-73
2022/06/23 13:54:33;;;;;;;2.10;1.90;;;26.40;95.40;;;;;;6236557;28;20056;-73
2022/06/23 13:57:42;;;;;;;7.72;2.00;;;26.40;95.50;;;;;;6229172;28;20513;-73
2022/06/23 14:00:50;;;;;;;2.67;1.90;;;26.40;95.40;;;;;;6244246;28;20133;-73
2022/06/23 14:03:57;;;;;;;2.15;1.80;;;26.30;95.40;;;;;;6246693;28;20056;-73
2022/06/23 14:07:09;;;;;;;3.30;1.90;;;26.40;95.30;;;;;;6246060;28;20050;-72
2022/06/23 14:10:18;;;;;;;3.58;1.98;;;26.50;95.30;;;;;;6232687;28;20131;-72
2022/06/23 14:13:25;;;;;;;3.05;2.22;;;26.50;94.80;;;;;;6246483;28;20115;-73
2022/06/23 14:16:34;;;;;;;3.58;2.00;;;26.50;94.90;;;;;;6247192;28;20056;-72
2022/06/23 14:19:50;;;;;;;3.25;2.20;;;26.60;95.30;;;;;;6247822;28;20431;-73
2022/06/23 14:22:57;;;;;;;2.67;2.00;;;26.60;94.70;;;;;;6245591;28;20045;-72
2022/06/23 14:26:10;;;;;;;2.42;2.22;;;26.60;94.90;;;;;;6238426;28;20124;-73
2022/06/23 14:29:18;;;;;;;2.90;1.83;;;26.70;95.00;;;;;;6235378;28;20053;-73
2022/06/23 14:32:27;;;;;;;3.65;2.00;;;26.70;94.80;;;;;;6246043;28;20060;-74
2022/06/23 14:35:36;;;;;;;3.50;2.13;;;26.70;94.70;;;;;;6245675;28;20045;-73
2022/06/23 14:38:46;;;;;;;2.35;1.90;;;26.70;94.40;;;;;;6244522;28;20049;-73
2022/06/23 14:42:05;;;;;;;3.33;2.10;;;26.70;94.70;;;;;;6244370;28;20481;-73
2022/06/23 14:45:28;;;;;;;5.72;2.22;;;26.60;94.90;;;;;;6231392;28;20052;-73
2022/06/23 14:48:54;;;;;;;2.70;2.10;;;26.70;94.50;;;;;;6240663;28;20404;-73
2022/06/23 14:52:01;;;;;;;2.80;2.00;;;26.70;93.80;;;;;;6245580;28;21119;-71
2022/06/23 14:55:15;;;;;;;3.05;1.80;;;27.30;92.70;;;;;;6238785;28;20050;-72
2022/06/23 14:58:22;;;;;;;;;;;28.10;93.00;;;;;;6239470;28;20049;-71
2022/06/23 15:01:35;;;;;;;4.95;2.05;;;29.00;90.50;;;;;;6228381;28;19925;-70
2022/06/23 15:04:54;;;;;;;3.22;2.08;;;29.30;90.50;;;;;;6242914;28;20053;-71
2022/06/23 15:08:00;;;;;;;5.65;1.95;;;29.40;90.80;;;;;;6245169;28;20192;-71
2022/06/23 15:11:08;;;;;;;4.78;2.17;;;29.50;89.60;;;;;;6246005;28;20049;-70
2022/06/23 15:14:15;;;;;;;4.45;1.80;;;29.70;89.50;;;;;;6245224;28;20412;-71
2022/06/23 15:17:23;;;;;;;3.15;1.95;;;29.70;90.60;;;;;;6234552;28;20050;-70
2022/06/23 15:20:39;;;;;;;4.47;1.90;;;29.80;89.70;;;;;;6221604;28;20060;-71
2022/06/23 15:23:46;;;;;;;5.60;2.00;;;29.90;89.50;;;;;;6235375;28;20055;-74
2022/06/23 15:26:58;;;;;;;2.35;1.83;;;30.00;88.80;;;;;;6244572;28;20057;-74
2022/06/23 15:30:05;;;;;;;5.25;1.88;;;30.00;89.10;;;;;;6241529;28;20041;-72
2022/06/23 15:33:17;;;;;;;2.20;2.00;;;30.00;89.20;;;;;;6240053;28;20064;-71
2022/06/23 15:36:47;;;;;;;5.10;2.20;;;30.00;86.70;;;;;;6245235;28;20053;-71
2022/06/23 15:39:54;;;;;;;2.95;2.00;;;30.00;86.60;;;;;;6243476;28;20151;-73
2022/06/23 15:43:01;;;;;;;2.83;1.80;;;29.90;86.10;;;;;;6235126;28;20049;-73
2022/06/23 15:46:10;;;;;;;2.78;1.88;;;29.90;87.50;;;;;;6244815;28;20050;-73
2022/06/23 15:49:23;;;;;;;5.30;1.95;;;29.90;86.80;;;;;;6247391;28;20045;-73
2022/06/23 15:52:31;;;;;;;2.55;1.65;;;30.00;86.80;;;;;;6244336;28;20086;-72
2022/06/23 15:55:38;;;;;;;2.40;1.75;;;30.00;86.20;;;;;;6246917;28;20053;-72
2022/06/23 15:58:48;;;;;;;3.28;1.58;;;30.00;86.30;;;;;;6250318;28;20052;-72
2022/06/23 16:01:56;;;;;;;3.53;1.98;;;29.90;87.30;;;;;;6243167;28;20128;-72
2022/06/23 16:05:05;;;;;;;3.17;1.75;;;29.80;87.90;;;;;;6248856;28;20053;-73
2022/06/23 16:08:11;;;;;;;10.63;2.10;;;29.70;87.30;;;;;;6240741;28;20042;-72
2022/06/23 16:11:16;;;;;;;3.45;1.63;;;29.70;88.40;;;;;;6239585;28;20061;-72
2022/06/23 16:14:21;;;;;;;3.03;1.80;;;29.50;87.50;;;;;;6244003;28;20054;-73
2022/06/23 16:17:28;;;;;;;3.45;2.03;;;29.40;87.50;;;;;;6244180;28;20056;-72
2022/06/23 16:20:36;;;;;;;2.65;1.75;;;29.30;87.40;;;;;;6249260;28;20179;-72
2022/06/23 16:23:50;;;;;;;4.88;1.92;;;29.20;87.50;;;;;;6248990;28;20060;-72
2022/06/23 16:26:59;;;;;;;3.30;1.70;;;29.20;88.00;;;;;;6245252;28;20489;-73